This is the latest recevied weather packets stored in our database for station/object KC9DRE. If no packets are shown the sender has not sent any weather packets the latest 10 day(s).
| Time | Temp. | Humidity | Pressure | Rain* | Wind** | Luminosity | Snow |
|---|---|---|---|---|---|---|---|
| 1777559067 | 12.22° C | 55% | 1018.2 hPa | 0 mm | - | 564 W/m² | - |
| 1777557244 | 11.11° C | 67% | 1017.9 hPa | 0 mm | - | 467 W/m² | - |
| 1777556940 | 11.11° C | 63% | 1018 hPa | 0 mm | - | 453 W/m² | - |
| 1777556635 | 11.11° C | 64% | 1018.1 hPa | 0 mm | - | 439 W/m² | - |
| 1777552388 | 8.89° C | 77% | 1017.5 hPa | 0 mm | - | 122 W/m² | - |
| 1777551782 | 8.33° C | 87% | 1017.9 hPa | 0 mm | - | 98 W/m² | - |
| 1777550873 | 6.67° C | 98% | 1017.4 hPa | 0 mm | - | 73 W/m² | - |
| 1777550569 | 6.11° C | 98% | 1017.4 hPa | 0 mm | - | 67 W/m² | - |
| 1777550265 | 5.56° C | 98% | 1017.4 hPa | 0 mm | - | 62 W/m² | - |
| 1777549052 | 2.78° C | 97% | 1017 hPa | 0 mm | - | 29 W/m² | - |
| 1777548445 | 2.22° C | 97% | 1016.8 hPa | 0 mm | - | 23 W/m² | - |
| 1777547534 | 2.22° C | 97% | 1016.7 hPa | 0 mm | - | 15 W/m² | - |
| 1777547232 | 2.22° C | 97% | 1016.5 hPa | 0 mm | - | 12 W/m² | - |
| 1777546321 | 2.22° C | 97% | 1016.3 hPa | 0 mm | - | 4 W/m² | - |
| 1777545715 | 1.67° C | 97% | 1016.3 hPa | 0 mm | - | 1 W/m² | - |
| 1777545412 | 1.67° C | 96% | 1016.3 hPa | 0 mm | - | 0 W/m² | - |
| 1777545109 | 1.67° C | 96% | 1016.4 hPa | 0 mm | - | 0 W/m² | - |
| 1777544806 | 1.67° C | 96% | 1016.1 hPa | 0 mm | - | 0 W/m² | - |
| 1777544502 | 2.22° C | 96% | 1016.1 hPa | 0 mm | - | 0 W/m² | - |
| 1777544198 | 2.22° C | 96% | 1016.1 hPa | 0 mm | - | 0 W/m² | - |
| 1777543896 | 2.22° C | 96% | 1016.2 hPa | 0 mm | - | 0 W/m² | - |
| 1777543592 | 2.22° C | 96% | 1015.9 hPa | 0 mm | - | 0 W/m² | - |
| 1777542985 | 2.22° C | 96% | 1016.2 hPa | 0 mm | - | 0 W/m² | - |
| 1777542680 | 2.22° C | 96% | 1016.1 hPa | 0 mm | - | 0 W/m² | - |
| 1777542377 | 2.78° C | 96% | 1016.1 hPa | 0 mm | - | 0 W/m² | - |
* Rain latest hour (hover to see other rain measurements)
** Current wind speed in m/s (hover to see current wind gust speed)